createdAt,value
2018-12-18T00:00:40.513Z,5.50
2018-12-18T00:05:34.593Z,5.50
2018-12-18T00:11:31.155Z,5.50
2018-12-18T00:16:24.435Z,5.40
2018-12-18T00:21:17.665Z,5.20
2018-12-18T00:31:04.215Z,5.20
2018-12-18T00:35:59.479Z,5.50
2018-12-18T00:40:52.672Z,5.50
2018-12-18T00:45:46.364Z,5.60
2018-12-18T00:50:39.668Z,5.80
2018-12-18T00:55:33.125Z,5.80
2018-12-18T01:00:26.447Z,5.90
2018-12-18T01:05:19.812Z,5.90
2018-12-18T01:10:13.153Z,5.80
2018-12-18T01:15:06.707Z,5.70
2018-12-18T01:19:59.948Z,5.60
2018-12-18T01:24:53.190Z,5.30
2018-12-18T01:29:47.371Z,5.00
2018-12-18T01:34:40.623Z,4.90
2018-12-18T01:39:33.868Z,5.00
2018-12-18T01:44:27.107Z,4.90
2018-12-18T01:49:20.402Z,4.80
2018-12-18T01:54:13.598Z,4.60
2018-12-18T01:59:06.847Z,4.50
2018-12-18T02:04:05.725Z,4.40
2018-12-18T02:08:55.314Z,4.30
2018-12-18T02:13:48.584Z,4.30
2018-12-18T02:18:41.826Z,4.20
2018-12-18T02:23:35.039Z,4.20
2018-12-18T02:28:28.269Z,4.20
2018-12-18T02:33:21.532Z,4.30
2018-12-18T02:38:14.796Z,4.30
2018-12-18T02:43:08.048Z,4.20
2018-12-18T02:48:01.266Z,4.20
2018-12-18T02:52:54.505Z,4.10
2018-12-18T02:57:47.770Z,4.10
2018-12-18T03:02:41.008Z,4.00
2018-12-18T03:07:34.223Z,3.90
2018-12-18T03:12:27.479Z,3.90
2018-12-18T03:17:20.775Z,3.90
2018-12-18T03:22:14.031Z,3.80
2018-12-18T03:27:07.270Z,3.70
2018-12-18T03:32:05.031Z,3.70
2018-12-18T03:36:58.361Z,3.80
2018-12-18T03:41:51.765Z,3.60
2018-12-18T03:46:45.002Z,3.60
2018-12-18T03:51:38.199Z,3.50
2018-12-18T03:56:31.493Z,3.50
2018-12-18T04:01:24.745Z,3.40
2018-12-18T04:06:17.970Z,3.50
2018-12-18T04:11:11.232Z,3.50
2018-12-18T04:16:04.430Z,3.40
2018-12-18T04:20:57.665Z,3.40
2018-12-18T04:25:53.594Z,3.30
2018-12-18T04:30:46.763Z,3.30
2018-12-18T04:35:39.973Z,3.40
2018-12-18T04:40:33.152Z,3.40
2018-12-18T04:45:26.433Z,3.50
2018-12-18T04:50:20.826Z,3.50
2018-12-18T04:55:14.201Z,3.60
2018-12-18T05:00:09.074Z,3.60
2018-12-18T05:05:02.256Z,3.60
2018-12-18T05:09:55.492Z,3.60
2018-12-18T05:14:48.706Z,3.60
2018-12-18T05:19:41.958Z,3.50
2018-12-18T05:24:35.655Z,3.50
2018-12-18T05:29:28.871Z,3.40
2018-12-18T05:34:22.118Z,3.40
2018-12-18T05:39:15.315Z,3.30
2018-12-18T05:44:08.541Z,3.20
2018-12-18T05:49:01.781Z,3.20
2018-12-18T05:53:55.158Z,3.10
2018-12-18T05:58:48.364Z,3.10
2018-12-18T06:03:41.592Z,3.00
2018-12-18T06:08:34.831Z,3.00
2018-12-18T06:13:28.033Z,3.00
2018-12-18T06:18:21.316Z,3.00
2018-12-18T06:23:14.533Z,2.90
2018-12-18T06:28:07.725Z,3.00
2018-12-18T06:33:00.948Z,3.00
2018-12-18T06:37:54.149Z,3.10
2018-12-18T06:42:47.364Z,3.10
2018-12-18T06:47:40.631Z,3.00
2018-12-18T06:52:33.839Z,3.20
2018-12-18T06:57:27.039Z,3.00
2018-12-18T07:02:20.309Z,3.00
2018-12-18T07:07:13.542Z,3.10
2018-12-18T07:12:06.813Z,3.10
2018-12-18T07:17:00.002Z,3.10
2018-12-18T07:21:53.234Z,3.20
2018-12-18T07:26:46.477Z,3.30
2018-12-18T07:31:39.717Z,3.30
2018-12-18T07:36:32.943Z,3.30
2018-12-18T07:41:26.845Z,3.40
2018-12-18T07:46:20.518Z,3.40
2018-12-18T07:51:13.723Z,3.60
2018-12-18T07:56:06.919Z,3.60
2018-12-18T08:01:00.133Z,3.70
2018-12-18T08:05:53.532Z,3.80
2018-12-18T08:10:46.752Z,3.90
2018-12-18T08:15:39.975Z,4.10
2018-12-18T08:20:33.321Z,5.00
2018-12-18T08:25:26.688Z,5.20
2018-12-18T08:30:19.897Z,5.40
2018-12-18T08:35:13.170Z,5.40
2018-12-18T08:40:07.358Z,5.70
2018-12-18T08:45:00.596Z,5.70
2018-12-18T08:49:53.837Z,6.00
2018-12-18T08:54:47.026Z,5.90
2018-12-18T08:59:40.301Z,5.90
2018-12-18T09:04:33.577Z,6.00
2018-12-18T09:09:26.815Z,6.20
2018-12-18T09:14:20.074Z,6.30
2018-12-18T09:19:13.323Z,6.40
2018-12-18T09:24:06.525Z,6.60
2018-12-18T09:28:59.745Z,6.50
2018-12-18T09:33:53.614Z,6.30
2018-12-18T09:38:52.640Z,6.30
2018-12-18T09:43:51.654Z,6.40
2018-12-18T09:48:45.013Z,6.40
2018-12-18T09:53:39.070Z,6.40
2018-12-18T09:58:32.747Z,6.40
2018-12-18T10:03:26.123Z,6.40
2018-12-18T10:08:20.505Z,6.50
2018-12-18T10:13:14.144Z,6.60
2018-12-18T10:18:07.428Z,6.60
2018-12-18T10:23:00.799Z,6.70
2018-12-18T10:27:54.037Z,6.80
2018-12-18T10:32:47.311Z,6.90
2018-12-18T10:37:40.551Z,6.90
2018-12-18T10:42:34.746Z,7.00
2018-12-18T10:47:28.029Z,7.10
2018-12-18T10:52:21.397Z,7.20
2018-12-18T10:57:14.704Z,7.20
2018-12-18T11:02:08.507Z,7.30
2018-12-18T11:07:02.028Z,7.40
2018-12-18T11:11:55.979Z,7.50
2018-12-18T11:16:50.193Z,7.60
2018-12-18T11:21:43.493Z,7.60
2018-12-18T11:26:36.841Z,7.60
2018-12-18T11:31:30.120Z,7.70
2018-12-18T11:36:23.437Z,7.60
2018-12-18T11:41:16.647Z,7.70
2018-12-18T11:46:09.917Z,7.60
2018-12-18T11:51:03.218Z,7.60
2018-12-18T11:55:56.483Z,7.60
2018-12-18T12:00:49.710Z,7.70
2018-12-18T12:05:42.953Z,7.70
2018-12-18T12:10:36.169Z,7.80
2018-12-18T12:15:29.869Z,7.50
2018-12-18T12:20:23.764Z,7.60
2018-12-18T12:25:17.118Z,7.30
2018-12-18T12:30:10.601Z,7.30
2018-12-18T12:35:04.961Z,7.30
2018-12-18T12:39:58.357Z,7.30
2018-12-18T12:44:51.765Z,7.30
2018-12-18T12:49:45.054Z,7.20
2018-12-18T12:54:38.411Z,6.90
2018-12-18T12:59:31.642Z,6.90
2018-12-18T13:04:24.826Z,6.70
2018-12-18T13:09:18.193Z,6.70
2018-12-18T13:14:11.545Z,6.60
2018-12-18T13:19:04.757Z,6.50
2018-12-18T13:23:58.030Z,6.50
2018-12-18T13:28:51.322Z,6.50
2018-12-18T13:33:44.583Z,6.50
2018-12-18T13:38:37.887Z,6.40
2018-12-18T13:43:31.167Z,6.30
2018-12-18T13:48:24.366Z,6.30
2018-12-18T13:53:17.622Z,6.30
2018-12-18T13:58:10.961Z,6.30
2018-12-18T14:03:04.147Z,6.20
2018-12-18T14:07:57.404Z,6.20
2018-12-18T14:12:56.533Z,6.20
2018-12-18T14:17:49.739Z,6.10
2018-12-18T14:22:42.982Z,6.10
2018-12-18T14:27:36.255Z,6.00
2018-12-18T14:32:29.445Z,5.90
2018-12-18T14:37:22.727Z,5.80
2018-12-18T14:42:15.950Z,5.80
2018-12-18T14:47:09.190Z,5.80
2018-12-18T14:52:02.423Z,5.70
2018-12-18T14:56:55.643Z,5.70
2018-12-18T15:01:48.902Z,5.70
2018-12-18T15:06:42.130Z,5.60
2018-12-18T15:11:35.338Z,5.60
2018-12-18T15:16:28.536Z,5.50
2018-12-18T15:21:21.812Z,5.50
2018-12-18T15:26:15.009Z,5.50
2018-12-18T15:31:08.227Z,5.40
2018-12-18T15:36:01.738Z,5.40
2018-12-18T15:40:54.931Z,5.40
2018-12-18T15:45:48.170Z,5.40
2018-12-18T15:50:41.464Z,5.40
2018-12-18T15:55:34.758Z,5.40
2018-12-18T16:00:27.985Z,5.40
2018-12-18T16:05:21.265Z,5.30
2018-12-18T16:10:14.465Z,5.30
2018-12-18T16:15:08.371Z,5.30
2018-12-18T16:20:01.652Z,5.30
2018-12-18T16:24:54.829Z,5.30
2018-12-18T16:29:48.125Z,5.30
2018-12-18T16:34:41.450Z,5.40
2018-12-18T16:39:34.729Z,5.20
2018-12-18T16:44:27.880Z,5.30
2018-12-18T16:49:21.068Z,5.30
2018-12-18T16:54:14.510Z,5.30
2018-12-18T16:59:07.857Z,5.20
2018-12-18T17:04:01.077Z,5.20
2018-12-18T17:08:54.235Z,5.20
2018-12-18T17:13:47.451Z,5.20
2018-12-18T17:18:41.277Z,5.10
2018-12-18T17:23:34.435Z,5.10
2018-12-18T17:28:27.640Z,5.10
2018-12-18T17:33:20.847Z,5.00
2018-12-18T17:38:14.489Z,5.00
2018-12-18T17:43:07.673Z,4.90
2018-12-18T17:48:00.891Z,4.90
2018-12-18T17:52:54.073Z,4.90
2018-12-18T17:57:47.241Z,4.80
2018-12-18T18:02:40.566Z,4.80
2018-12-18T18:07:33.753Z,4.70
2018-12-18T18:12:29.892Z,4.70
2018-12-18T18:17:22.205Z,4.70
2018-12-18T18:22:15.378Z,4.70
2018-12-18T18:27:08.552Z,4.70
2018-12-18T18:32:01.756Z,4.70
2018-12-18T18:36:55.062Z,4.60
2018-12-18T18:41:48.230Z,4.70
2018-12-18T18:46:41.427Z,4.70
2018-12-18T18:51:34.635Z,4.60
2018-12-18T18:56:27.846Z,4.70
2018-12-18T19:01:21.043Z,4.60
2018-12-18T19:06:14.249Z,4.60
2018-12-18T19:11:07.446Z,4.60
2018-12-18T19:16:00.654Z,4.60
2018-12-18T19:20:53.828Z,4.70
2018-12-18T19:25:47.179Z,4.70
2018-12-18T19:30:40.357Z,4.60
2018-12-18T19:35:33.550Z,4.60
2018-12-18T19:40:26.739Z,4.70
2018-12-18T19:45:19.937Z,4.70
2018-12-18T19:50:13.167Z,4.60
2018-12-18T19:55:07.560Z,4.60
2018-12-18T20:00:00.747Z,4.60
2018-12-18T20:04:54.060Z,4.60
2018-12-18T20:09:47.241Z,4.50
2018-12-18T20:14:41.188Z,4.60
2018-12-18T20:20:58.919Z,4.60
2018-12-18T20:25:52.614Z,4.70
2018-12-18T20:30:45.881Z,4.70
2018-12-18T20:35:39.147Z,4.70
2018-12-18T20:40:32.374Z,4.60
2018-12-18T20:45:25.649Z,4.60
2018-12-18T20:50:18.904Z,4.60
2018-12-18T20:55:12.128Z,4.60
2018-12-18T21:00:08.818Z,4.60
2018-12-18T21:05:02.075Z,4.70
2018-12-18T21:09:55.402Z,4.70
2018-12-18T21:14:48.611Z,4.70
2018-12-18T21:19:41.875Z,4.80
2018-12-18T21:24:35.115Z,4.80
2018-12-18T21:29:28.383Z,4.80
2018-12-18T21:34:21.607Z,4.80
2018-12-18T21:39:14.876Z,4.90
2018-12-18T21:44:09.569Z,5.00
2018-12-18T21:49:02.873Z,5.00
2018-12-18T21:53:56.562Z,4.90
2018-12-18T21:58:54.096Z,4.90
2018-12-18T22:03:47.660Z,4.90
2018-12-18T22:08:40.885Z,4.90
2018-12-18T22:13:34.136Z,4.90
2018-12-18T22:18:29.163Z,4.90
2018-12-18T22:23:22.782Z,5.00
2018-12-18T22:28:16.337Z,5.20
2018-12-18T22:33:09.563Z,5.30
2018-12-18T22:38:02.770Z,5.30
2018-12-18T22:42:56.373Z,5.30
2018-12-18T22:47:49.656Z,5.20
2018-12-18T22:52:42.874Z,5.20
2018-12-18T22:57:36.114Z,5.30
2018-12-18T23:02:29.337Z,5.20
2018-12-18T23:07:22.608Z,5.30
2018-12-18T23:12:15.825Z,5.20
2018-12-18T23:17:09.066Z,5.10
2018-12-18T23:22:02.306Z,5.10
2018-12-18T23:26:55.499Z,5.10
2018-12-18T23:31:48.703Z,5.10
2018-12-18T23:36:42.042Z,5.10
2018-12-18T23:41:36.597Z,5.10
2018-12-18T23:46:31.745Z,5.20
2018-12-18T23:51:25.248Z,5.30
2018-12-18T23:56:18.483Z,5.40
